Time;durP1;ratioP1;P1;durP2;ratioP2;P2;SDS_P1;SDS_P2;PMS_P1;PMS_P2;Temp;Humidity;BMP_temperature;BMP_pressure;BME280_temperature;BME280_humidity;BME280_pressure;Samples;Min_cycle;Max_cycle;Signal;HPM_P1;HPM_P2
2023/08/22 00:02:01;;;;;;;1.50;1.40;;;;;;;19.80;57.13;101859.59;5028980;27;97665;-54
2023/08/22 00:04:27;;;;;;;1.30;1.20;;;;;;;19.76;57.15;101859.16;5029994;27;97265;-53
2023/08/22 00:06:52;;;;;;;1.30;1.20;;;;;;;19.71;57.05;101855.13;5028804;27;97439;-57
2023/08/22 00:09:17;;;;;;;1.70;1.60;;;;;;;19.68;57.27;101855.44;5029542;27;97270;-55
2023/08/22 00:11:43;;;;;;;1.37;1.27;;;;;;;19.64;57.10;101854.97;5029402;27;97404;-54
2023/08/22 00:14:08;;;;;;;1.47;1.20;;;;;;;19.60;57.17;101857.31;5029186;27;97655;-55
2023/08/22 00:16:33;;;;;;;3.17;1.40;;;;;;;19.58;57.33;101849.47;5029290;27;106765;-52
2023/08/22 00:18:59;;;;;;;1.30;1.20;;;;;;;19.57;57.29;101845.16;5027212;27;98326;-53
2023/08/22 00:21:24;;;;;;;2.00;1.23;;;;;;;19.57;57.28;101844.41;5029246;27;99799;-53
2023/08/22 00:23:50;;;;;;;3.30;1.60;;;;;;;19.55;57.36;101835.81;5028739;27;96778;-53
2023/08/22 00:26:15;;;;;;;2.20;1.40;;;;;;;19.52;57.37;101829.25;5025503;27;97431;-53
2023/08/22 00:28:40;;;;;;;1.33;1.23;;;;;;;19.51;57.58;101847.25;5026778;27;97217;-53
2023/08/22 00:31:06;;;;;;;3.67;1.23;;;;;;;19.50;57.20;101842.97;5030938;27;97173;-53
2023/08/22 00:33:31;;;;;;;3.70;1.50;;;;;;;19.47;57.24;101849.59;5028218;27;98175;-53
2023/08/22 00:35:56;;;;;;;2.03;1.73;;;;;;;19.40;57.48;101839.03;5029364;27;97314;-53
2023/08/22 00:38:22;;;;;;;1.53;1.43;;;;;;;19.41;57.33;101855.25;5026397;27;105019;-53
2023/08/22 00:40:47;;;;;;;1.30;1.20;;;;;;;19.38;57.42;101836.75;5029545;27;97616;-53
2023/08/22 00:43:13;;;;;;;1.70;1.60;;;;;;;19.38;57.58;101838.78;5028321;27;97394;-54
2023/08/22 00:45:40;;;;;;;2.20;1.40;;;;;;;19.37;57.29;101843.59;5028832;27;97153;-53
2023/08/22 00:48:06;;;;;;;2.50;1.90;;;;;;;19.27;57.39;101842.44;5028252;27;97079;-55
2023/08/22 00:50:32;;;;;;;3.00;1.83;;;;;;;19.18;57.71;101840.00;5028867;27;97316;-55
2023/08/22 00:52:58;;;;;;;1.90;1.23;;;;;;;19.13;57.75;101835.22;5032778;27;97073;-54
2023/08/22 00:55:24;;;;;;;1.83;1.17;;;;;;;19.12;57.57;101830.94;5027575;27;96972;-56
2023/08/22 00:57:49;;;;;;;4.80;2.13;;;;;;;19.07;57.73;101828.94;5027923;27;96979;-55
2023/08/22 01:00:15;;;;;;;1.20;1.10;;;;;;;19.03;57.73;101836.84;5028342;27;96816;-53
2023/08/22 01:02:41;;;;;;;1.20;1.20;;;;;;;19.04;57.58;101830.00;5026970;27;97383;-54
2023/08/22 01:05:09;;;;;;;1.40;1.30;;;;;;;19.01;57.87;101842.22;5028042;27;97127;-54
2023/08/22 01:07:40;;;;;;;1.83;1.73;;;;;;;19.03;57.96;101831.28;5027696;27;97138;-53
2023/08/22 01:10:25;;;;;;;2.50;1.57;;;;;;;19.06;57.86;101824.66;5028594;27;97140;-54
2023/08/22 01:13:06;;;;;;;1.20;1.10;;;;;;;19.06;57.85;101826.69;5030000;27;97456;-53
2023/08/22 01:15:34;;;;;;;3.63;1.30;;;;;;;19.05;57.87;101820.34;5027205;27;97897;-54
2023/08/22 01:18:03;;;;;;;1.63;1.53;;;;;;;19.04;57.90;101810.50;5029160;27;97443;-53
2023/08/22 01:20:29;;;;;;;1.90;1.20;;;;;;;19.04;57.81;101818.84;5029896;27;96929;-54
2023/08/22 01:22:55;;;;;;;1.73;1.63;;;;;;;19.04;58.11;101827.22;5030404;27;97186;-53
2023/08/22 01:25:20;;;;;;;2.80;1.53;;;;;;;19.04;57.90;101832.81;5028668;27;97644;-52
2023/08/22 01:27:50;;;;;;;1.73;1.50;;;;;;;19.01;58.05;101813.56;5025565;27;97328;-54
2023/08/22 01:30:27;;;;;;;1.83;1.50;;;;;;;18.96;58.51;101808.81;5026249;27;97071;-54
2023/08/22 01:32:55;;;;;;;3.37;1.70;;;;;;;18.93;58.12;101802.22;5026895;27;97293;-53
2023/08/22 01:35:22;;;;;;;2.07;1.67;;;;;;;18.93;57.95;101807.06;5025377;27;97256;-54
2023/08/22 01:37:51;;;;;;;2.27;1.90;;;;;;;18.91;58.08;101804.03;5030585;27;97256;-54
2023/08/22 01:40:17;;;;;;;2.37;1.47;;;;;;;18.90;58.20;101797.69;5028675;27;97877;-53
2023/08/22 01:42:42;;;;;;;2.93;1.50;;;;;;;18.92;58.21;101795.13;5029900;27;97161;-52
2023/08/22 01:45:08;;;;;;;1.63;1.30;;;;;;;18.95;58.10;101796.88;5027861;27;111970;-52
2023/08/22 01:47:35;;;;;;;1.83;1.17;;;;;;;18.97;58.22;101794.31;5025137;27;96971;-54
2023/08/22 01:50:02;;;;;;;1.57;1.40;;;;;;;18.98;58.25;101798.63;5027305;27;96973;-56
2023/08/22 01:52:27;;;;;;;2.13;1.60;;;;;;;18.99;58.14;101799.38;5028109;27;97905;-53
2023/08/22 01:54:52;;;;;;;1.90;1.60;;;;;;;18.93;58.27;101779.94;5026914;27;105025;-55
2023/08/22 01:57:17;;;;;;;1.87;1.30;;;;;;;18.93;58.43;101776.38;5030138;27;97279;-54
2023/08/22 01:59:43;;;;;;;4.60;1.27;;;;;;;18.93;58.25;101787.53;5030191;27;102280;-55
2023/08/22 02:02:08;;;;;;;1.57;1.47;;;;;;;18.94;58.33;101783.44;5027511;27;100303;-54
2023/08/22 02:04:33;;;;;;;1.53;1.10;;;;;;;18.94;58.45;101775.84;5029893;27;97505;-53
2023/08/22 02:06:59;;;;;;;1.40;1.30;;;;;;;18.96;58.46;101776.06;5028812;27;97359;-53
2023/08/22 02:09:24;;;;;;;1.60;1.50;;;;;;;18.97;58.42;101785.19;5028290;27;97444;-53
2023/08/22 02:11:51;;;;;;;1.53;1.43;;;;;;;18.99;58.33;101780.63;5031442;27;97273;-53
2023/08/22 02:14:17;;;;;;;1.53;1.43;;;;;;;18.98;58.51;101781.88;5030261;27;97218;-53
2023/08/22 02:16:42;;;;;;;1.57;1.40;;;;;;;19.01;58.63;101772.47;5025066;27;97437;-53
2023/08/22 02:19:07;;;;;;;2.80;1.80;;;;;;;19.03;58.56;101760.78;5027203;27;96828;-53
2023/08/22 02:21:33;;;;;;;1.40;1.20;;;;;;;19.04;58.52;101757.50;5026234;27;97413;-53
2023/08/22 02:23:58;;;;;;;2.57;1.17;;;;;;;19.01;58.50;101758.53;5024224;27;97151;-54
2023/08/22 02:26:24;;;;;;;1.13;1.10;;;;;;;18.97;58.67;101757.31;5027084;27;107956;-52
2023/08/22 02:28:52;;;;;;;1.17;1.17;;;;;;;18.97;58.61;101757.31;5027797;27;97089;-54
2023/08/22 02:31:18;;;;;;;1.30;1.20;;;;;;;18.96;58.68;101753.75;5026553;27;99869;-54
2023/08/22 02:33:43;;;;;;;1.60;1.50;;;;;;;18.98;58.67;101748.41;5030419;27;98619;-54
2023/08/22 02:36:08;;;;;;;4.03;1.50;;;;;;;18.96;58.72;101739.81;5026694;27;97226;-53
2023/08/22 02:38:34;;;;;;;1.50;1.40;;;;;;;19.02;58.73;101746.09;5026005;27;97063;-53
2023/08/22 02:40:59;;;;;;;1.33;1.33;;;;;;;19.04;58.80;101745.56;5028529;27;97193;-53
2023/08/22 02:43:24;;;;;;;1.53;1.30;;;;;;;19.03;58.73;101750.38;5027161;27;96808;-53
2023/08/22 02:45:50;;;;;;;5.00;1.30;;;;;;;19.04;58.79;101763.06;5028861;27;97500;-53
2023/08/22 02:48:15;;;;;;;1.13;1.03;;;;;;;19.03;58.62;101755.97;5028642;27;97346;-54
2023/08/22 02:50:40;;;;;;;1.37;1.27;;;;;;;18.99;58.79;101735.97;5028627;27;97639;-53
2023/08/22 02:53:06;;;;;;;1.43;1.33;;;;;;;18.99;58.89;101721.28;5027241;27;102867;-56
2023/08/22 02:55:31;;;;;;;1.10;1.00;;;;;;;19.01;59.01;101724.28;5026537;27;102791;-55
2023/08/22 02:57:57;;;;;;;6.50;1.30;;;;;;;19.03;58.83;101728.06;5028072;27;96935;-53
2023/08/22 03:00:22;;;;;;;3.23;1.20;;;;;;;19.07;58.94;101722.94;5032015;27;97218;-54
2023/08/22 03:02:48;;;;;;;1.17;1.07;;;;;;;19.07;58.84;101728.53;5032476;27;97783;-54
2023/08/22 03:05:13;;;;;;;1.20;1.10;;;;;;;19.08;59.04;101746.78;5029540;27;97224;-54
2023/08/22 03:07:39;;;;;;;2.50;1.40;;;;;;;19.08;58.84;101741.22;5033991;27;96976;-54
2023/08/22 03:10:05;;;;;;;1.40;1.30;;;;;;;19.11;58.96;101739.41;5037329;27;97523;-56
2023/08/22 03:12:30;;;;;;;1.20;1.13;;;;;;;19.07;58.86;101759.22;5033920;27;97492;-53
2023/08/22 03:14:55;;;;;;;1.43;1.00;;;;;;;19.04;58.70;101740.00;5032521;27;100683;-53
2023/08/22 03:17:21;;;;;;;1.67;1.57;;;;;;;18.96;59.02;101753.03;5034280;27;96960;-53
2023/08/22 03:19:46;;;;;;;1.77;1.40;;;;;;;18.92;59.04;101758.13;5033863;27;97346;-53
2023/08/22 03:22:11;;;;;;;2.03;1.23;;;;;;;18.93;59.52;101746.47;5032020;27;97089;-54
2023/08/22 03:24:36;;;;;;;1.73;1.57;;;;;;;18.97;59.34;101704.31;5030214;27;103555;-54
2023/08/22 03:27:02;;;;;;;1.53;1.17;;;;;;;19.00;59.56;101684.47;5029375;27;102484;-53
2023/08/22 03:29:27;;;;;;;3.10;0.87;;;;;;;19.04;59.53;101726.03;5030699;27;97440;-53
2023/08/22 03:31:53;;;;;;;1.20;1.10;;;;;;;19.09;59.46;101753.13;5031000;27;108561;-55
2023/08/22 03:34:18;;;;;;;2.13;1.40;;;;;;;19.12;59.45;101755.63;5034363;27;97242;-54
2023/08/22 03:36:43;;;;;;;4.10;1.30;;;;;;;19.15;59.51;101759.38;5028352;27;105292;-55
2023/08/22 03:39:09;;;;;;;1.80;1.20;;;;;;;19.18;59.56;101764.66;5033104;27;97059;-54
2023/08/22 03:41:34;;;;;;;2.30;1.33;;;;;;;19.21;59.47;101769.19;5032144;27;97042;-53
2023/08/22 03:43:59;;;;;;;2.40;1.17;;;;;;;19.24;59.33;101759.03;5033126;27;101202;-53
2023/08/22 03:46:25;;;;;;;1.60;1.50;;;;;;;19.18;59.43;101733.97;5032751;27;97160;-54
2023/08/22 03:48:50;;;;;;;1.80;1.30;;;;;;;19.08;59.56;101716.09;5029621;27;97243;-53
2023/08/22 03:51:16;;;;;;;3.87;1.30;;;;;;;19.03;59.68;101728.06;5022998;27;97737;-53
2023/08/22 03:53:41;;;;;;;1.57;1.47;;;;;;;19.04;59.86;101748.34;5022040;27;97790;-53
2023/08/22 03:56:06;;;;;;;1.50;1.40;;;;;;;19.07;59.87;101762.00;5019887;27;97172;-53
2023/08/22 03:58:32;;;;;;;1.40;1.20;;;;;;;19.11;59.93;101753.34;5023107;27;97408;-53
2023/08/22 04:01:04;;;;;;;1.40;1.30;;;;;;;19.13;60.10;101734.78;5031138;27;97116;-54
2023/08/22 04:03:30;;;;;;;1.57;1.40;;;;;;;19.15;59.84;101715.50;5027387;27;97157;-53
2023/08/22 04:05:57;;;;;;;1.47;1.37;;;;;;;19.11;59.71;101695.50;5025935;27;97066;-54
2023/08/22 04:08:23;;;;;;;1.60;1.50;;;;;;;19.14;59.88;101699.28;5029245;27;97216;-52
2023/08/22 04:10:49;;;;;;;1.20;1.10;;;;;;;19.13;59.71;101723.63;5032580;27;97735;-54
2023/08/22 04:13:14;;;;;;;1.07;0.97;;;;;;;19.08;59.86;101730.06;5030055;27;105868;-53
2023/08/22 04:15:39;;;;;;;2.20;1.23;;;;;;;19.10;60.04;101738.66;5033336;27;101269;-54
2023/08/22 04:18:05;;;;;;;1.30;1.20;;;;;;;19.11;59.95;101748.50;5024414;27;98289;-56
2023/08/22 04:20:31;;;;;;;1.10;1.10;;;;;;;19.13;59.96;101742.41;5026849;27;97342;-54
2023/08/22 04:22:56;;;;;;;1.90;1.20;;;;;;;19.14;59.89;101736.31;5029601;27;97393;-54
2023/08/22 04:25:21;;;;;;;1.50;1.17;;;;;;;19.12;60.11;101733.28;5025112;27;97098;-54
2023/08/22 04:27:47;;;;;;;1.43;1.33;;;;;;;19.11;60.07;101717.81;5027067;27;107911;-54
2023/08/22 04:30:13;;;;;;;1.47;1.37;;;;;;;19.12;60.00;101730.50;5029966;27;97057;-54
2023/08/22 04:32:39;;;;;;;1.60;1.50;;;;;;;19.11;60.09;101728.25;5029687;27;97043;-54
2023/08/22 04:35:04;;;;;;;1.23;1.13;;;;;;;19.08;60.18;101741.22;5031230;27;97195;-55
2023/08/22 04:37:30;;;;;;;1.50;1.30;;;;;;;19.09;60.20;101739.19;5028478;27;97395;-54
2023/08/22 04:39:55;;;;;;;1.70;1.60;;;;;;;19.03;60.24;101735.69;5030273;27;97392;-55
2023/08/22 04:42:20;;;;;;;1.03;1.03;;;;;;;19.01;60.34;101741.03;5028343;27;97407;-54
2023/08/22 04:44:46;;;;;;;2.90;1.20;;;;;;;19.01;60.38;101744.59;5030427;27;103791;-53
2023/08/22 04:47:11;;;;;;;2.20;1.50;;;;;;;19.04;60.41;101746.34;5029758;27;107904;-54
2023/08/22 04:49:36;;;;;;;1.00;0.90;;;;;;;19.07;60.35;101736.13;5031739;27;97507;-54
2023/08/22 04:52:02;;;;;;;1.27;1.20;;;;;;;19.09;60.28;101737.13;5028911;27;97419;-54
2023/08/22 04:54:27;;;;;;;1.50;1.37;;;;;;;19.09;60.34;101747.56;5028699;27;97630;-53
2023/08/22 04:56:53;;;;;;;1.20;1.10;;;;;;;19.04;60.42;101732.38;5027327;27;107750;-53
2023/08/22 04:59:18;;;;;;;1.07;1.07;;;;;;;19.05;60.45;101719.16;5028590;27;97321;-54
2023/08/22 05:01:43;;;;;;;2.27;1.30;;;;;;;19.06;60.38;101715.88;5032922;27;97497;-53
2023/08/22 05:04:08;;;;;;;2.10;1.50;;;;;;;19.09;60.52;101703.66;5029231;27;99102;-54
2023/08/22 05:06:34;;;;;;;1.40;1.30;;;;;;;19.14;60.58;101705.63;5029181;27;106972;-54
2023/08/22 05:08:59;;;;;;;1.10;1.00;;;;;;;19.18;60.58;101706.06;5027782;27;104721;-54
2023/08/22 05:11:24;;;;;;;8.93;1.37;;;;;;;19.22;60.69;101705.78;5028823;27;97568;-53
2023/08/22 05:13:50;;;;;;;1.40;1.30;;;;;;;19.24;60.63;101726.28;5032113;27;97361;-55
2023/08/22 05:16:15;;;;;;;1.40;1.30;;;;;;;19.27;60.54;101735.63;5026300;27;98157;-55
2023/08/22 05:18:40;;;;;;;2.13;1.40;;;;;;;19.31;60.69;101736.09;5028503;27;100364;-53
2023/08/22 05:21:06;;;;;;;2.00;1.40;;;;;;;19.35;60.64;101731.75;5027939;27;103843;-55
2023/08/22 05:23:31;;;;;;;2.23;1.23;;;;;;;19.40;60.85;101733.72;5027339;27;97469;-55
2023/08/22 05:25:57;;;;;;;1.23;1.13;;;;;;;19.43;60.76;101731.91;5025922;27;96794;-54
2023/08/22 05:28:22;;;;;;;1.57;1.40;;;;;;;19.46;60.68;101730.88;5024494;27;98297;-54
2023/08/22 05:30:47;;;;;;;1.13;1.07;;;;;;;19.52;60.67;101725.19;5027359;27;97576;-53
2023/08/22 05:33:13;;;;;;;1.63;1.53;;;;;;;19.55;60.60;101721.34;5023663;27;96931;-55
2023/08/22 05:35:38;;;;;;;1.93;1.30;;;;;;;19.59;60.79;101721.78;5025059;27;98122;-54
2023/08/22 05:38:03;;;;;;;2.40;1.67;;;;;;;19.61;60.69;101728.38;5026048;27;98979;-55
2023/08/22 05:40:30;;;;;;;1.30;1.20;;;;;;;19.61;60.59;101719.22;5029322;27;97145;-54
2023/08/22 05:42:55;;;;;;;2.97;1.40;;;;;;;19.63;60.44;101728.59;5029737;27;97463;-55
2023/08/22 05:45:20;;;;;;;1.20;0.90;;;;;;;19.66;60.55;101733.09;5030956;27;97479;-55
2023/08/22 05:47:45;;;;;;;2.20;1.40;;;;;;;19.70;60.41;101727.97;5029684;27;96899;-53
2023/08/22 05:50:11;;;;;;;3.40;1.50;;;;;;;19.76;60.61;101731.44;5029098;27;97276;-56
2023/08/22 05:52:37;;;;;;;3.77;1.70;;;;;;;19.81;60.67;101721.47;5029487;27;97184;-54
2023/08/22 05:55:03;;;;;;;2.17;1.40;;;;;;;19.86;60.53;101729.00;5025055;27;97689;-53
2023/08/22 05:57:29;;;;;;;4.80;1.33;;;;;;;19.90;60.67;101726.63;5030484;27;96907;-53
2023/08/22 05:59:54;;;;;;;3.53;1.50;;;;;;;19.94;60.74;101732.69;5033229;27;96956;-53
2023/08/22 06:02:20;;;;;;;1.53;1.43;;;;;;;19.98;61.01;101730.34;5029337;27;97267;-55
2023/08/22 06:04:46;;;;;;;2.40;1.33;;;;;;;20.00;60.66;101730.56;5028384;27;97907;-54
2023/08/22 06:07:11;;;;;;;1.33;1.23;;;;;;;20.06;60.95;101736.81;5032398;27;97649;-55
2023/08/22 06:09:37;;;;;;;1.40;1.23;;;;;;;20.10;60.78;101737.25;5026325;27;97023;-53
2023/08/22 06:12:02;;;;;;;4.07;1.63;;;;;;;20.15;60.79;101734.38;5026497;27;97721;-53
2023/08/22 06:14:29;;;;;;;1.57;1.47;;;;;;;20.22;60.69;101738.63;5028514;27;97899;-54
2023/08/22 06:16:54;;;;;;;1.60;1.50;;;;;;;20.28;60.83;101730.88;5029424;27;97313;-53
2023/08/22 06:19:19;;;;;;;1.40;1.30;;;;;;;20.34;60.79;101731.53;5026324;27;97474;-54
2023/08/22 06:21:45;;;;;;;1.27;1.10;;;;;;;20.41;60.88;101736.50;5026576;27;97425;-53
2023/08/22 06:24:10;;;;;;;1.93;1.40;;;;;;;20.49;60.81;101728.97;5025464;27;97954;-53
2023/08/22 06:26:35;;;;;;;1.40;1.30;;;;;;;20.56;60.89;101731.13;5022766;27;101611;-54
2023/08/22 06:29:01;;;;;;;1.13;1.13;;;;;;;20.63;60.80;101732.53;5027953;27;97660;-54
2023/08/22 06:31:26;;;;;;;1.97;1.50;;;;;;;20.69;60.85;101731.16;5024122;27;97021;-54
2023/08/22 06:33:51;;;;;;;1.50;1.40;;;;;;;20.75;60.95;101734.59;5029493;27;98465;-54
2023/08/22 06:36:17;;;;;;;1.60;1.23;;;;;;;20.83;61.09;101729.13;5025890;27;98894;-53
2023/08/22 06:38:42;;;;;;;1.50;1.40;;;;;;;20.90;60.86;101729.22;5037615;27;97295;-53
2023/08/22 06:41:07;;;;;;;1.20;1.10;;;;;;;20.98;60.96;101745.34;5033285;27;97294;-54
2023/08/22 06:43:33;;;;;;;4.50;1.50;;;;;;;21.07;60.89;101728.91;5031616;27;97678;-54
2023/08/22 06:45:59;;;;;;;1.53;1.40;;;;;;;21.13;60.88;101728.78;5035739;27;97001;-53
2023/08/22 06:48:26;;;;;;;1.97;1.50;;;;;;;21.21;60.87;101727.59;5033723;27;97250;-53
2023/08/22 06:50:52;;;;;;;2.13;1.80;;;;;;;21.29;61.01;101727.69;5030974;27;96962;-54
2023/08/22 06:53:17;;;;;;;1.10;1.00;;;;;;;21.37;61.02;101729.28;5036598;27;97051;-53
2023/08/22 06:55:46;;;;;;;1.90;1.57;;;;;;;21.42;60.91;101722.06;5039344;27;98216;-54
2023/08/22 06:58:11;;;;;;;1.50;1.40;;;;;;;21.49;60.90;101722.13;5036373;27;96894;-54
2023/08/22 07:00:37;;;;;;;1.97;1.30;;;;;;;21.56;60.95;101726.31;5033424;27;96985;-53
2023/08/22 07:03:02;;;;;;;1.40;1.30;;;;;;;21.61;60.97;101729.00;5038483;27;107245;-53
2023/08/22 07:05:28;;;;;;;1.20;1.10;;;;;;;21.65;60.99;101723.06;5032438;27;97363;-53
2023/08/22 07:07:53;;;;;;;10.57;1.77;;;;;;;21.72;61.03;101725.19;5034151;27;97341;-54
2023/08/22 07:10:18;;;;;;;4.23;1.60;;;;;;;21.76;61.08;101722.81;5033129;27;97184;-53
2023/08/22 07:12:44;;;;;;;1.43;1.20;;;;;;;21.83;61.26;101727.00;5035639;27;97324;-54
2023/08/22 07:15:09;;;;;;;1.43;1.33;;;;;;;21.88;61.15;101724.09;5034055;27;97690;-54
2023/08/22 07:17:35;;;;;;;1.43;1.20;;;;;;;21.96;61.16;101724.16;5035941;27;96996;-54
2023/08/22 07:20:01;;;;;;;1.37;1.27;;;;;;;22.02;61.05;101717.09;5038185;27;97688;-54
2023/08/22 07:22:26;;;;;;;4.57;1.30;;;;;;;22.08;60.97;101725.41;5033641;27;97109;-54
2023/08/22 07:24:51;;;;;;;1.87;1.57;;;;;;;22.13;61.06;101725.25;5032693;27;105983;-54
2023/08/22 07:27:18;;;;;;;1.83;1.37;;;;;;;22.18;60.88;101721.56;5034536;27;97072;-54
2023/08/22 07:29:44;;;;;;;1.40;1.30;;;;;;;22.25;60.78;101725.72;5033948;27;97155;-54
2023/08/22 07:32:09;;;;;;;1.87;1.50;;;;;;;22.31;60.82;101718.66;5037280;27;97205;-54
2023/08/22 07:34:35;;;;;;;1.60;1.20;;;;;;;22.41;60.64;101723.78;5033227;27;96901;-54
2023/08/22 07:37:00;;;;;;;1.57;1.47;;;;;;;22.47;60.70;101719.53;5034809;27;96904;-53
2023/08/22 07:39:27;;;;;;;1.97;1.70;;;;;;;22.56;60.56;101721.09;5033967;27;97452;-54
2023/08/22 07:41:53;;;;;;;3.30;1.37;;;;;;;22.63;60.42;101735.19;5036002;27;97549;-54
2023/08/22 07:44:19;;;;;;;4.60;1.53;;;;;;;22.70;60.34;101719.69;5034486;27;97755;-54
2023/08/22 07:46:44;;;;;;;1.77;1.37;;;;;;;22.76;59.70;101714.72;5033017;27;96738;-53
2023/08/22 07:49:09;;;;;;;1.80;1.67;;;;;;;22.81;59.79;101716.59;5032706;27;97344;-54
2023/08/22 07:51:36;;;;;;;1.50;1.40;;;;;;;22.86;59.65;101708.03;5028984;27;114884;-54
2023/08/22 07:54:02;;;;;;;1.50;1.40;;;;;;;22.94;59.58;101716.47;5033277;27;96725;-53
2023/08/22 07:56:27;;;;;;;1.50;1.40;;;;;;;22.99;59.53;101724.75;5028730;27;97367;-53
2023/08/22 07:58:53;;;;;;;2.27;1.80;;;;;;;23.06;59.50;101715.59;5030869;27;103630;-53
2023/08/22 08:01:18;;;;;;;2.67;1.30;;;;;;;23.15;59.38;101716.41;5027821;27;97906;-53
2023/08/22 08:03:43;;;;;;;2.37;1.37;;;;;;;23.23;59.15;101717.94;5031029;27;96845;-54
2023/08/22 08:06:09;;;;;;;1.47;1.30;;;;;;;23.31;58.83;101718.69;5031941;27;97330;-54
2023/08/22 08:08:34;;;;;;;1.63;1.30;;;;;;;23.41;58.61;101722.53;5028667;27;97041;-54
2023/08/22 08:11:00;;;;;;;1.83;1.73;;;;;;;23.51;58.75;101715.06;5028826;27;96994;-54
2023/08/22 08:13:25;;;;;;;1.73;1.50;;;;;;;23.60;58.33;101725.75;5032280;27;97237;-54
2023/08/22 08:15:50;;;;;;;1.80;1.50;;;;;;;23.66;58.11;101731.19;5029289;27;97421;-54
2023/08/22 08:18:16;;;;;;;1.97;1.80;;;;;;;23.74;57.94;101731.97;5030207;27;97355;-54
2023/08/22 08:20:42;;;;;;;2.43;1.70;;;;;;;23.79;57.73;101723.34;5029682;27;97978;-54
2023/08/22 08:23:08;;;;;;;2.00;1.60;;;;;;;23.93;57.30;101729.56;5030794;27;96772;-54
2023/08/22 08:25:33;;;;;;;1.83;1.70;;;;;;;24.07;57.11;101732.97;5028797;27;97377;-53
2023/08/22 08:27:58;;;;;;;2.63;1.60;;;;;;;24.21;57.12;101735.03;5033237;27;97178;-54
2023/08/22 08:30:24;;;;;;;2.37;1.90;;;;;;;24.28;56.87;101731.50;5029540;27;102572;-54
2023/08/22 08:32:49;;;;;;;2.10;1.90;;;;;;;24.33;56.76;101732.63;5030381;27;97146;-53
2023/08/22 08:35:15;;;;;;;1.63;1.53;;;;;;;24.39;56.87;101727.53;5031024;27;97499;-53
2023/08/22 08:37:40;;;;;;;3.33;1.70;;;;;;;24.47;56.98;101728.28;5028044;27;97362;-53
2023/08/22 08:40:09;;;;;;;1.70;1.60;;;;;;;24.54;56.55;101738.78;5029874;27;101996;-54
2023/08/22 08:42:38;;;;;;;7.57;1.63;;;;;;;24.63;56.60;101732.56;5026618;27;97994;-54
2023/08/22 08:45:07;;;;;;;3.70;2.53;;;;;;;24.72;56.52;101732.00;5030109;27;96740;-54
2023/08/22 08:47:33;;;;;;;3.00;1.60;;;;;;;24.81;56.35;101739.13;5030549;27;97281;-53
2023/08/22 08:50:04;;;;;;;6.03;2.03;;;;;;;24.93;56.23;101729.72;5030187;27;97032;-53
2023/08/22 08:52:30;;;;;;;1.67;1.57;;;;;;;25.09;56.14;101727.59;5032266;27;97822;-53
2023/08/22 08:54:57;;;;;;;1.63;1.47;;;;;;;25.26;55.53;101739.00;5030600;27;97148;-54
2023/08/22 08:57:22;;;;;;;1.27;1.17;;;;;;;25.38;55.21;101739.31;5027614;27;97037;-53
2023/08/22 08:59:48;;;;;;;1.63;1.53;;;;;;;25.49;55.10;101739.66;5028784;27;97203;-54
2023/08/22 09:02:16;;;;;;;1.47;1.20;;;;;;;25.65;54.71;101735.44;5029633;27;97352;-53
2023/08/22 09:04:42;;;;;;;2.00;1.30;;;;;;;25.78;54.57;101732.34;5029178;27;97121;-53
2023/08/22 09:07:08;;;;;;;2.17;1.40;;;;;;;25.89;54.35;101731.91;5031452;27;96882;-54
2023/08/22 09:09:37;;;;;;;1.73;1.63;;;;;;;25.97;53.95;101729.03;5029826;27;97377;-54
2023/08/22 09:12:07;;;;;;;3.07;1.60;;;;;;;26.02;53.67;101723.16;5029039;27;97267;-53
2023/08/22 09:14:34;;;;;;;4.00;1.60;;;;;;;26.03;53.71;101726.72;5029593;27;96876;-53
2023/08/22 09:17:02;;;;;;;1.30;1.20;;;;;;;26.04;53.29;101736.66;5029399;27;96813;-54
2023/08/22 09:19:32;;;;;;;2.10;1.40;;;;;;;26.10;53.29;101734.41;5028996;27;106761;-54
2023/08/22 09:21:59;;;;;;;4.47;1.60;;;;;;;26.20;53.57;101729.63;5031587;27;97299;-54
2023/08/22 09:24:25;;;;;;;2.50;1.63;;;;;;;26.35;53.60;101729.47;5028352;27;97324;-54
2023/08/22 09:26:51;;;;;;;3.30;1.53;;;;;;;26.51;52.98;101732.91;5029473;27;97017;-53
2023/08/22 09:29:25;;;;;;;1.67;1.50;;;;;;;26.63;52.30;101729.03;5028124;27;97605;-53
2023/08/22 09:31:51;;;;;;;2.33;1.30;;;;;;;26.72;52.57;101725.53;5028544;27;97187;-55
2023/08/22 09:34:17;;;;;;;1.70;1.57;;;;;;;26.72;52.33;101734.00;5025656;27;96969;-54
2023/08/22 09:36:45;;;;;;;1.87;1.57;;;;;;;26.69;51.83;101729.53;5026508;27;105965;-54
2023/08/22 09:39:13;;;;;;;1.40;1.30;;;;;;;26.65;52.04;101732.00;5027324;27;97406;-54
2023/08/22 09:41:39;;;;;;;1.17;1.07;;;;;;;26.63;51.92;101731.84;5028150;27;98332;-54
2023/08/22 09:44:05;;;;;;;1.33;1.23;;;;;;;26.66;52.10;101730.69;5026298;27;96871;-54
2023/08/22 09:46:31;;;;;;;4.50;1.40;;;;;;;26.71;52.11;101723.31;5027383;27;98010;-53
2023/08/22 09:48:59;;;;;;;3.13;1.40;;;;;;;26.84;51.76;101730.72;5026939;27;96749;-53
2023/08/22 09:51:25;;;;;;;2.70;1.73;;;;;;;26.97;51.54;101733.22;5028417;27;97864;-53
2023/08/22 09:53:55;;;;;;;1.57;1.47;;;;;;;27.04;51.70;101732.38;5026149;27;96695;-54
2023/08/22 09:56:20;;;;;;;1.40;1.30;;;;;;;27.03;51.50;101733.72;5023077;27;97349;-54
2023/08/22 09:58:46;;;;;;;1.60;1.50;;;;;;;26.98;51.28;101726.97;5026432;27;97196;-54
2023/08/22 10:01:16;;;;;;;2.43;1.30;;;;;;;26.95;50.90;101733.06;5026595;27;96756;-53
2023/08/22 10:03:47;;;;;;;2.70;1.57;;;;;;;26.97;50.97;101731.16;5023959;27;97097;-54
2023/08/22 10:06:14;;;;;;;1.40;1.23;;;;;;;27.02;51.06;101723.75;5026674;27;97137;-54
2023/08/22 10:08:45;;;;;;;1.77;1.40;;;;;;;27.09;50.52;101725.72;5027740;27;96793;-54
2023/08/22 10:11:17;;;;;;;3.43;1.50;;;;;;;27.18;50.28;101730.69;5028246;27;97736;-53
2023/08/22 10:13:44;;;;;;;1.90;1.40;;;;;;;27.28;50.48;101725.88;5025658;27;97047;-54
2023/08/22 10:16:09;;;;;;;1.67;1.20;;;;;;;27.41;50.53;101731.91;5027407;27;97477;-53
2023/08/22 10:18:36;;;;;;;1.60;0.97;;;;;;;27.55;50.28;101731.56;5026946;27;97219;-54
2023/08/22 10:21:04;;;;;;;2.73;1.23;;;;;;;27.65;50.21;101735.19;5024801;27;98015;-55
2023/08/22 10:23:44;;;;;;;1.13;1.03;;;;;;;27.73;48.75;101722.44;5024776;27;96730;-55
2023/08/22 10:26:10;;;;;;;2.03;1.20;;;;;;;27.79;49.32;101730.63;5026499;27;96895;-56
2023/08/22 10:28:42;;;;;;;2.90;1.90;;;;;;;27.90;48.60;101728.00;5029280;27;97266;-56
2023/08/22 10:31:07;;;;;;;4.00;1.40;;;;;;;27.96;49.17;101728.47;5029935;27;97276;-55
2023/08/22 10:33:32;;;;;;;3.00;1.00;;;;;;;27.95;49.13;101729.84;5029131;27;97564;-55
2023/08/22 10:36:16;;;;;;;1.10;1.00;;;;;;;27.92;48.33;101719.69;5026272;27;97250;-54
2023/08/22 10:38:56;;;;;;;1.23;1.00;;;;;;;27.91;48.27;101725.94;5030137;27;98563;-54
2023/08/22 10:41:23;;;;;;;2.60;1.13;;;;;;;28.00;48.86;101728.81;5025712;27;97349;-55
2023/08/22 10:43:49;;;;;;;2.20;1.33;;;;;;;28.11;48.77;101727.53;5029078;27;97002;-53
2023/08/22 10:46:14;;;;;;;2.10;1.50;;;;;;;28.21;48.54;101725.47;5024723;27;96980;-56
2023/08/22 10:48:39;;;;;;;1.80;1.33;;;;;;;28.30;48.18;101724.00;5029977;27;97237;-54
2023/08/22 10:51:06;;;;;;;1.80;1.00;;;;;;;28.31;48.37;101728.34;5029672;27;97174;-55
2023/08/22 10:53:44;;;;;;;1.90;1.10;;;;;;;28.29;47.52;101728.16;5027912;27;97111;-54
2023/08/22 10:56:23;;;;;;;2.53;1.30;;;;;;;28.15;46.94;101725.72;5027662;27;96918;-56
2023/08/22 10:58:59;;;;;;;1.90;1.17;;;;;;;28.15;47.39;101725.72;5029255;27;97037;-53
2023/08/22 11:01:25;;;;;;;1.63;1.40;;;;;;;28.25;47.75;101725.03;5025174;27;97354;-54
2023/08/22 11:03:51;;;;;;;1.10;1.00;;;;;;;28.36;47.69;101715.97;5029624;27;97306;-56
2023/08/22 11:06:19;;;;;;;2.13;1.43;;;;;;;28.44;47.88;101719.41;5027128;27;97053;-55
2023/08/22 11:08:45;;;;;;;2.37;1.07;;;;;;;28.52;47.43;101714.34;5025962;27;97416;-55
2023/08/22 11:11:20;;;;;;;2.40;1.43;;;;;;;28.59;45.93;101719.91;5030430;27;97208;-54
2023/08/22 11:13:45;;;;;;;1.00;0.93;;;;;;;28.59;46.86;101719.16;5026674;27;97478;-54
2023/08/22 11:16:14;;;;;;;2.53;1.20;;;;;;;28.69;47.04;101717.84;5028621;27;96849;-55
2023/08/22 11:18:40;;;;;;;1.27;1.03;;;;;;;28.75;46.94;101714.69;5029640;27;96956;-53
2023/08/22 11:21:06;;;;;;;2.97;1.37;;;;;;;28.69;46.44;101712.16;5027661;27;97150;-55